Tiempo atmosférico en la estación meteorológica de Estaca De Bares, A Coruña (80 m.)

Fecha
DESCASC
Temp. máxima en grados centígrados (hora)
DESCASC
Temp. mínima en grados centígrados (hora)
DESCASC
Temp. media en grados centígrados
DESCASC
Racha de viento máxima en m/sg (hora)
DESCASC
Velocidad máxima media en intervalos de 10 minutos(hora)
DESCASC
Precipitaciones diarias en mm
DESCASC
Precipitaciones de 00:00 a 06:00 en mm
DESCASC
Precipitaciones de 06:00 a 12:00 en mm
DESCASC
Precipitaciones de 12:00 a 18:00 en mm
DESCASC
Precipitaciones de 18:00 a 24:00 en mm
DESCASC
17-08-2017 25.4 (12:40) 19.1 (07:30) 22.3 16.11 (17:30) 14.44 (19:20) 0 0 0 0 0
16-08-2017 24.1 (12:30) 15.7 (06:20) 19.9 16.11 (17:20) 14.72 (17:20) 0 0 0 0 0
15-08-2017 23.9 (13:50) 16.9 (00:00) 20.4 7.5 (07:50) 6.94 (07:50) 0.2 0 0.2 0 0
14-08-2017 21.8 (17:50) 18 (21:20) 19.9 17.22 (16:20) 15.83 (16:20) 0 0 0 0 0
13-08-2017 21.7 (15:20) 17.9 (00:00) 19.8 15.28 (18:10) 12.78 (20:50) 0 0 0 0 0
12-08-2017 22 (12:40) 17.1 (00:00) 19.6 10.56 (18:50) 7.78 (16:50) 0 0 0 0 0
11-08-2017 21.2 (14:10) 17 (00:00) 19.1 11.39 (03:30) 9.17 (02:20) 0 0 0 0 0
10-08-2017 20.7 (14:50) 16.4 (00:00) 18.6 11.11 (04:50) 9.44 (23:10) 0 0 0 0 0
09-08-2017 20.7 (16:30) 14.6 (00:00) 17.7 11.39 (01:00) 8.06 (02:40) 0 0 0 0 0
08-08-2017 22.7 (14:00) 14.8 (00:00) 18.8 12.78 (17:40) 11.11 (17:40) 3.2 3 0.2 0 0
07-08-2017 19.9 (19:10) 15.4 (00:00) 17.6 18.06 (04:20) 15.56 (05:10) 4.4 0 2.4 2 0
06-08-2017 20.3 (14:50) 17.2 (00:00) 18.8 18.89 (19:00) 15.28 (21:40) 0 0 0 0 0
05-08-2017 19.6 (16:50) 16 (00:00) 17.8 13.33 (23:50) 9.72 (23:30) 0.4 0.4 0 0 0
04-08-2017 21.4 (04:20) 16.2 (00:00) 18.8 15.56 (04:40) 12.5 (05:10) 6.2 0 0.4 2.8 3
03-08-2017 24.2 (12:40) 18.2 (00:00) 21.2 15.28 (02:00) 13.06 (17:10) 0 0 0 0 0
02-08-2017 27.1 (14:40) 15.8 (00:00) 21.5 16.94 (16:10) 15.28 (17:50) 0 0 0 0 0
01-08-2017 22.7 (15:00) 16 (00:00) 19.4 5.83 (14:40) 4.72 (15:20) 0 0 0 0 0
31-07-2017 22.1 (16:00) 16.1 (00:00) 19.1 6.11 (04:30) 5.56 (05:00) 0 0 0 0 0
30-07-2017 22.3 (17:40) 16.7 (00:00) 19.5 17.5 (13:20) 15.28 (14:40) 0.8 0.8 0 0 0
29-07-2017 27.4 (13:50) 18.8 (00:00) 23.1 20.56 (16:30) 17.22 (21:40) 0 0 0 0 0
28-07-2017 25.7 (18:10) 16.2 (00:00) 21 12.78 (19:00) 8.33 (17:00) 0 0 0 0 0
27-07-2017 19.6 (08:30) 17.3 (00:00) 18.4 13.89 (07:10) 11.94 (07:10) 2.6 0 1 1.6 0
26-07-2017 21.8 (12:20) 16.8 (00:00) 19.3 16.67 (18:20) 15 (18:20) 0 0 0 0 0
25-07-2017 24 (17:20) 16.9 (00:00) 20.4 8.33 (05:30) 4.44 (05:20) 0 0 0 0 0
24-07-2017 19.9 (16:30) 16.6 (00:00) 18.3 12.5 (03:40) 10.56 (03:50) 3.2 0.8 0.4 2 0
23-07-2017 22.8 (12:40) 16.1 (00:00) 19.4 13.61 (20:40) 11.67 (21:20) 0 0 0 0 0
22-07-2017 21.6 (15:20) 15.7 (00:00) 18.7 16.67 (18:00) 14.72 (16:40) 2 2 0 0 0

Gráficas

Temp. máximas Temp. mínimas Temp. medias Precipitaciones Rachas de viento máximas Velocidades máximas media en intervalos de 10 minutos

Datos horarios

Fecha y hora oficial Temperatura (ºC) Velocidad del viento (km/h) Dirección del viento Racha (km/h) Dirección de racha Precipitación (mm) Presión (hPa) Tendencia (hPa) Humedad (%)
2017-08-20 23:00:00 18.8 41 Sudeste 52 Sudeste 0 1009.1 -0.7 83
2017-08-20 22:00:00 18.8 39 Sudeste 53 Sudeste 0 1009.2 -0.9 81
2017-08-20 21:00:00 18.8 42 Sudeste 51 Sudeste 0 1009.3 -1.3 81
2017-08-20 20:00:00 19.3 40 Este 51 Sudeste 0 1009.8 -1.5 79
2017-08-20 19:00:00 19.7 42 Este 50 Este 0 1010.1 -1.8 78
2017-08-20 18:00:00 20 43 Este 53 Este 0 1010.6 -1.8 77
2017-08-20 17:00:00 20.3 42 Este 51 Sudeste 0 1011.3 -1.3 76
2017-08-20 16:00:00 20.7 40 Este 48 Este 0 1011.9 -0.5 73
2017-08-20 15:00:00 20.9 35 Este 47 Este 0 1012.4 0.2 74
2017-08-20 14:00:00 21.2 33 Este 51 Este 0 1012.6 0 71
2017-08-20 13:00:00 21 35 Este 48 Este 0 1012.4 -0.2 70
2017-08-20 12:00:00 20.5 34 Este 47 Sudeste 0 1012.2 -0.1 73
2017-08-20 11:00:00 19.9 32 Este 43 Este 0 1012.6 0.2 77
2017-08-20 10:00:00 19.3 34 Este 47 Sudeste 0 1012.6 0.3 79
2017-08-20 09:00:00 18.7 39 Este 48 Este 0 1012.3 -0.1 83
2017-08-20 08:00:00 18.2 33 Sudeste 44 Sudeste 0 1012.4 -0.2 85
2017-08-20 07:00:00 18.1 31 Este 41 Este 0 1012.3 -0.3 86
2017-08-20 06:00:00 18.2 32 Este 41 Sudeste 0 1012.4 -0.5 85
2017-08-20 05:00:00 18.4 29 Este 40 Este 0 1012.6 -1 84
2017-08-20 04:00:00 18.4 28 Este 41 Este 0 1012.6 -1.2 84
2017-08-20 03:00:00 18.4 29 Este 41 Sudeste 0 1012.9 -1.4 82
2017-08-20 02:00:00 18.5 31 Este 46 Este 0 1013.6 -0.6 80
2017-08-20 01:00:00 18.5 33 Este 49 Este 0 1013.8 -0.3 78
2017-08-20 00:00:00 18.5 35 Este 52 Este 0 1014.3 0.6 76
2017-08-19 23:00:00 18.7 36 Este 49 Este 0 1014.2 0.6 74
2017-08-19 22:00:00 18.7 37 Este 45 Este 0 1014.1 0.7 74
2017-08-19 21:00:00 18.7 35 Este 45 Este 0 1013.7 0.2 72
2017-08-19 20:00:00 18.9 35 Este 42 Este 0 1013.6 -0.1 72
2017-08-19 19:00:00 19 33 Este 42 Nordeste 0 1013.4 -0.1 72
2017-08-19 18:00:00 19.1 36 Este 41 Este 0 1013.5 0 71
2017-08-19 17:00:00 19.2 30 Nordeste 40 Este 0 1013.7 -0.1 70
2017-08-19 16:00:00 19.5 31 Este 41 Este 0 1013.5 -0.1 68
2017-08-19 15:00:00 19.3 31 Este 42 Este 0 1013.5 -0.4 67
2017-08-19 14:00:00 19 28 Este 39 Este 0 1013.8 0.4 65
2017-08-19 13:00:00 18.9 32 Este 40 Este 0 1013.6 0.4 66
2017-08-19 12:00:00 18.4 32 Nordeste 40 Nordeste 0 1013.9 0.7 68
2017-08-19 11:00:00 18.3 30 Este 38 Este 0 1013.4 0.4 68
2017-08-19 10:00:00 18.2 30 Este 42 Nordeste 0 1013.2 1 69
2017-08-19 09:00:00 18 32 Nordeste 38 Nordeste 0 1013.2 1.2 71
2017-08-19 08:00:00 18 30 Nordeste 42 Nordeste 0 1013 0.3 71
2017-08-19 07:00:00 18 33 Nordeste 41 Nordeste 0 1012.2 -0.1 72
2017-08-19 06:00:00 17.9 26 Este 33 Nordeste 0 1012 -0.1 71
2017-08-19 05:00:00 18.1 23 Nordeste 33 Nordeste 0 1012.7 0.1 71
2017-08-19 04:00:00 18 30 Este 37 Nordeste 0 1012.3 -0.6 72
2017-08-19 03:00:00 18 30 Este 40 Nordeste 0 1012.1 -1 74
2017-08-19 02:00:00 18.3 32 Este 39 Nordeste 0 1012.6 -0.6 74
2017-08-19 01:00:00 18.4 22 Nordeste 32 Nordeste 0 1012.9 0.3 75
2017-08-19 00:00:00 18.6 21 Nordeste 31 Nordeste 0 1013.1 0.9 77
2017-08-18 23:00:00 18.6 19 Nordeste 27 Este 0 1013.2 1.2 79
2017-08-18 22:00:00 18.7 18 Nordeste 27 Nordeste 0 1012.6 0.8 77
2017-08-18 21:00:00 19.4 14 Nordeste 24 Nordeste 0 1012.2 0.7 77
2017-08-18 20:00:00 19.9 12 Nordeste 22 Este 0 1012 0.8 75
2017-08-18 19:00:00 20.1 16 Nordeste 27 Nordeste 0 1011.8 0.4 74
2017-08-18 18:00:00 21.2 13 Norte 21 Norte 0 1011.5 -0.2 70
2017-08-18 17:00:00 21.9 11 Nordeste 21 Nordeste 0 1011.2 -0.4 73
2017-08-18 16:00:00 22.3 9 Norte 17 Norte 0 1011.4 0.2 72
2017-08-18 15:00:00 22.1 11 Norte 17 Norte 0 1011.7 0.9 74
2017-08-18 14:00:00 21.2 9 Noroeste 16 Noroeste 0 1011.6 0.9 78
2017-08-18 13:00:00 21.5 6 Oeste 12 Oeste 0 1011.2 1.3 82
2017-08-18 12:00:00 20.8 5 Oeste 12 Sudoeste 0 1010.8 1.3 82
2017-08-18 11:00:00 20.2 7 Oeste 11 Oeste 0 1010.7 1.6 85
2017-08-18 10:00:00 18.5 8 Sudoeste 19 Sudoeste 0.2 1009.9 1.3 88
2017-08-18 09:00:00 18.6 13 Sudoeste 23 Noroeste 1 1009.5 1.6 89
2017-08-18 08:00:00 19 8 Norte 21 Oeste 0 1009.1 0.8 87
2017-08-18 07:00:00 18.9 18 Oeste 26 Oeste 0.2 1008.6 0.4 87
2017-08-18 06:00:00 19 23 Oeste 31 Oeste 1 1007.9 -0.5 87
2017-08-18 05:00:00 19 22 Sudoeste 39 Oeste 1 1008.3 -0.3 88
2017-08-18 04:00:00 19.1 33 Oeste 41 Oeste 4.2 1008.2 -0.7 89
2017-08-18 03:00:00 19.4 27 Oeste 38 Sudoeste 0.2 1008.4 -0.8 85
2017-08-18 02:00:00 20.4 28 Oeste 34 Sudoeste 0 1008.6 -1 80
2017-08-18 01:00:00 20.4 26 Oeste 34 Oeste 0 1008.9 -0.4 79
2017-08-18 00:00:00 20.5 25 Sudoeste 33 Oeste 0 1009.2 0.3 76
2017-08-17 23:00:00 20.5 23 Sudoeste 32 Sudoeste 0 1009.6 1.2 73
2017-08-17 22:00:00 20.5 24 Oeste 38 Oeste 0 1009.3 1.2 73
2017-08-17 21:00:00 20.7 30 Oeste 37 Oeste 0 1008.9 1.2 71
2017-08-17 20:00:00 22.2 36 Oeste 58 Oeste 0 1008.4 0.3 66
2017-08-17 19:00:00 23.1 48 Oeste 55 Oeste 0 1008.1 -0.1 60
2017-08-17 18:00:00 22.2 48 Oeste 58 Oeste 0 1007.7 -0.8 63
2017-08-17 17:00:00 22.4 50 Oeste 56 Oeste 0 1008.1 -1.2 69
2017-08-17 16:00:00 22.5 44 Oeste 53 Oeste 0 1008.2 -1.6 70
2017-08-17 15:00:00 23 45 Oeste 53 Oeste 0 1008.5 -1.8 62
2017-08-17 14:00:00 23.6 32 Oeste 49 Oeste 0 1009.3 -0.8 62
2017-08-17 13:00:00 22.3 33 Noroeste 37 Oeste 0 1009.8 -0.2 68
2017-08-17 12:00:00 23.8 28 Oeste 35 Oeste 0 1010.3 0.2 62
2017-08-17 11:00:00 23.2 26 Oeste 33 Oeste 0 1010.1 0.4 62
2017-08-17 10:00:00 21.6 21 Sudoeste 31 Sudoeste 0 1010 0 67
2017-08-17 09:00:00 20.3 24 Oeste 32 Oeste 0 1010.1 0.3 74
2017-08-17 08:00:00 19.7 23 Sudoeste 32 Sudoeste 0 1009.7 0.3 77
2017-08-17 07:00:00 19.3 26 Oeste 33 Oeste 0 1010 0.3 80
2017-08-17 06:00:00 19.5 23 Oeste 37 Oeste 0 1009.8 -0.1 79
2017-08-17 05:00:00 19.9 31 Oeste 37 Oeste 0 1009.4 -0.7 77
2017-08-17 04:00:00 19.9 28 Oeste 36 Oeste 0 1009.7 -0.8 77
2017-08-17 03:00:00 19.8 28 Oeste 37 Oeste 0 1009.9 -1 77
2017-08-17 02:00:00 20.2 30 Oeste 33 Oeste 0 1010.1 -1.1 76
2017-08-17 01:00:00 20.4 28 Oeste 33 Oeste 0 1010.5 -0.7 76
2017-08-17 00:00:00 20.3 27 Oeste 31 Oeste 0 1010.9 -0.1 77
2017-08-16 23:00:00 20.2 28 Oeste 35 Oeste 0 1011.2 0.3 78
2017-08-16 22:00:00 20.3 21 Oeste 32 Oeste 0 1011.2 0.6 77
2017-08-16 21:00:00 20.1 28 Oeste 38 Oeste 0 1011 0.5 78
2017-08-16 20:00:00 20.6 37 Oeste 55 Oeste 0 1010.9 0.8 77
2017-08-16 19:00:00 21.4 46 Oeste 53 Oeste 0 1010.6 -0.2 73
2017-08-16 18:00:00 22 40 Oeste 58 Oeste 0 1010.5 -0.3 70
2017-08-16 17:00:00 21.5 44 Oeste 51 Noroeste 0 1010.1 -1.1 70
2017-08-16 16:00:00 22.1 39 Oeste 48 Oeste 0 1010.8 -0.6 67
2017-08-16 15:00:00 22.3 40 Oeste 48 Noroeste 0 1010.8 -0.5 65
2017-08-16 14:00:00 23 30 Oeste 38 Oeste 0 1011.2 0 63
2017-08-16 13:00:00 21.5 23 Noroeste 33 Noroeste 0 1011.4 -0.1 65
2017-08-16 12:00:00 23.1 22 Oeste 28 Oeste 0 1011.3 -0.2 57
2017-08-16 11:00:00 21.3 24 Oeste 32 Oeste 0 1011.2 0.3 58
2017-08-16 10:00:00 17.8 16 Oeste 19 Oeste 0 1011.5 0.8 69
2017-08-16 09:00:00 17 7 Oeste 18 Oeste 0 1011.5 0.9 77
2017-08-16 08:00:00 16 12 Sudoeste 15 Oeste 0 1010.9 0.2 79
2017-08-16 07:00:00 15.8 13 Sudoeste 22 Oeste 0 1010.7 0.1 82
2017-08-16 06:00:00 15.9 12 Oeste 15 Oeste 0 1010.6 -0.4 84
2017-08-16 05:00:00 16.4 12 Sudoeste 15 Sudoeste 0 1010.7 -0.6 82
2017-08-16 04:00:00 16.6 8 Sudoeste 11 Oeste 0 1010.6 -0.9 82
2017-08-16 03:00:00 16.7 9 Sudoeste 12 Oeste 0 1011 -0.4 82
2017-08-16 02:00:00 16.7 10 Oeste 13 Oeste 0 1011.3 -0.5 82
2017-08-16 01:00:00 17.3 4 Sudoeste 6 Este 0 1011.5 0 81
2017-08-16 00:00:00 17.3 4 Este 9 Este 0 1011.4 0.3 80
2017-08-15 23:00:00 17.8 6 Este 12 Este 0 1011.8 1 78
2017-08-15 22:00:00 18 8 Este 10 Este 0 1011.5 0.9 78
2017-08-15 21:00:00 18.4 8 Nordeste 13 Este 0 1011.1 0.6 76
2017-08-15 20:00:00 19 7 Nordeste 15 Nordeste 0 1010.8 0.4 74
2017-08-15 19:00:00 19.7 10 Nordeste 20 Norte 0 1010.6 0.2 72
2017-08-15 18:00:00 20.6 8 Norte 19 Norte 0 1010.5 0.1 68
2017-08-15 17:00:00 21 11 Norte 20 Norte 0 1010.4 0.2 68
2017-08-15 16:00:00 21.9 12 Norte 22 Norte 0 1010.4 0.4 66
2017-08-15 15:00:00 21.6 6 Oeste 20 Oeste 0 1010.4 0.7 73
2017-08-15 14:00:00 22.7 17 Oeste 21 Oeste 0 1010.2 0.8 70
2017-08-15 13:00:00 20.4 16 Oeste 20 Oeste 0 1010 1.1 82
2017-08-15 12:00:00 18.8 13 Oeste 22 Oeste 0 1009.7 1.1 86
2017-08-15 11:00:00 18.2 16 Oeste 22 Oeste 0 1009.4 1.4 89
2017-08-15 10:00:00 17.1 14 Oeste 24 Sudoeste 0 1008.9 1.4 89
2017-08-15 09:00:00 16.9 21 Oeste 23 Oeste 0.2 1008.6 1.4 89
2017-08-15 08:00:00 17.3 21 Oeste 27 Oeste 0 1008 0.9 86
2017-08-15 07:00:00 17.5 18 Oeste 23 Oeste 0 1007.5 0.6 85
2017-08-15 06:00:00 17.5 15 Oeste 19 Oeste 0 1007.2 0.1 85
2017-08-15 05:00:00 17.3 13 Oeste 18 Oeste 0 1007.1 -0.2 86
2017-08-15 04:00:00 17.7 10 Oeste 18 Oeste 0 1006.9 -0.4 86
2017-08-15 03:00:00 17.6 13 Oeste 23 Oeste 0 1007.1 -0.1 86
2017-08-15 02:00:00 18.2 17 Oeste 22 Oeste 0 1007.3 0.4 85
2017-08-15 01:00:00 18.1 17 Oeste 20 Oeste 0 1007.3 1.1 86
2017-08-15 00:00:00 18.1 17 Oeste 22 Oeste 0 1007.2 1.4 88
2017-08-14 23:00:00 18.4 17 Oeste 21 Oeste 0 1006.9 1.5 88
2017-08-14 22:00:00 18.3 15 Oeste 24 Oeste 0 1006.2 1.1 88
2017-08-14 21:00:00 18.2 9 Oeste 23 Oeste 0 1005.8 1.1 86
2017-08-14 20:00:00 18.5 10 Oeste 26 Oeste 0 1005.4 1.5 85
2017-08-14 19:00:00 18.8 15 Oeste 36 Oeste 0 1005.1 2.2 82
2017-08-14 18:00:00 20.4 36 Oeste 48 Oeste 0 1004.7 1.8 76
2017-08-14 17:00:00 21.4 41 Oeste 62 Oeste 0 1003.9 0.8 72
2017-08-14 16:00:00 19.4 51 Oeste 59 Oeste 0 1002.9 -0.3 80
2017-08-14 15:00:00 19.3 40 Oeste 47 Oeste 0 1002.9 -0.1 78
2017-08-14 14:00:00 18.7 18 Oeste 37 Noroeste 0 1003.1 0.6 81
2017-08-14 13:00:00 20.2 17 Oeste 23 Oeste 0 1003.2 1 73
2017-08-14 12:00:00 20.4 6 Oeste 12 Este 0 1003 0.8 73
2017-08-14 11:00:00 20.1 6 Este 20 Este 0 1002.5 0.8 79
2017-08-14 10:00:00 19.5 13 Este 15 Este 0 1002.2 0.3 82
2017-08-14 09:00:00 18.6 3 Sudoeste 20 Este 0 1002.2 0.4 85
2017-08-14 08:00:00 18.2 14 Este 25 Este 0 1001.7 -0.5 86
2017-08-14 07:00:00 18.5 18 Este 32 Este 0 1001.9 -0.5 85
2017-08-14 06:00:00 18.4 28 Sudeste 37 Sudeste 0 1001.8 -1 85
2017-08-14 05:00:00 18.6 30 Sudeste 39 Sudeste 0 1002.2 -1.5 85
2017-08-14 04:00:00 18.5 31 Sudeste 44 Este 0 1002.4 -1.9 86
2017-08-14 03:00:00 18.5 36 Sudeste 44 Este 0 1002.8 -2.1 85
2017-08-14 02:00:00 18.6 34 Sudeste 48 Este 0 1003.7 -1.6 85
2017-08-14 01:00:00 18.4 39 Este 49 Sudeste 0 1004.3 -1.2 85
2017-08-14 00:00:00 18.5 39 Sudeste 51 Sudeste 0 1004.9 -0.5 84
2017-08-13 23:00:00 18.6 41 Sudeste 49 Este 0 1005.3 -0.4 83
2017-08-13 22:00:00 18.7 41 Sudeste 50 Este 0 1005.5 -0.5 82
2017-08-13 21:00:00 18.9 43 Este 54 Este 0 1005.4 -1.1 81
2017-08-13 20:00:00 19.5 41 Este 55 Este 0 1005.7 -1.1 79
2017-08-13 19:00:00 20.4 33 Este 55 Este 0 1006 -1.2 74
2017-08-13 18:00:00 20.8 37 Este 49 Este 0 1006.5 -1.1 73
2017-08-13 17:00:00 21.1 31 Este 47 Sudeste 0 1006.8 -1.4 73
2017-08-13 16:00:00 21.2 31 Este 45 Este 0 1007.2 -1.3 73
2017-08-13 15:00:00 21.4 31 Este 44 Este 0 1007.6 -1.4 71
2017-08-13 14:00:00 20.3 35 Este 46 Este 0 1008.2 -1 75
2017-08-13 13:00:00 20.2 35 Este 45 Este 0 1008.5 -0.9 74
2017-08-13 12:00:00 20 35 Este 43 Sudeste 0 1009 -0.1 74
2017-08-13 11:00:00 19.8 33 Sudeste 42 Este 0 1009.2 0.4 76
2017-08-13 10:00:00 18.9 28 Este 49 Este 0 1009.4 0.4 78
2017-08-13 09:00:00 18.8 35 Este 48 Este 0 1009.1 -0.3 76
2017-08-13 08:00:00 18.2 37 Este 50 Este 0 1008.8 -0.9 78
2017-08-13 07:00:00 18.1 33 Este 45 Este 0 1009 -1 79
2017-08-13 06:00:00 18 32 Este 43 Este 0 1009.4 -1.4 79
2017-08-13 05:00:00 18 31 Este 41 Este 0 1009.7 -1.7 80
2017-08-13 04:00:00 17.9 29 Este 38 Este 0 1010 -1.7 80
2017-08-13 03:00:00 18 28 Este 37 Este 0 1010.8 -1.1 79
2017-08-13 02:00:00 18 28 Este 39 Este 0 1011.4 -0.6 79
2017-08-13 01:00:00 18 27 Este 37 Este 0 1011.7 -0.2 79
2017-08-13 00:00:00 18 26 Este 35 Este 0 1011.9 -0.1 79
2017-08-12 23:00:00 17.9 24 Este 34 Este 0 1012 0 78
2017-08-12 22:00:00 17.9 24 Este 36 Este 0 1011.9 -0.4 78
2017-08-12 21:00:00 18.4 24 Este 35 Este 0 1012 -0.7 76
2017-08-12 20:00:00 18.7 24 Este 35 Este 0 1012 -0.6 75
2017-08-12 19:00:00 19.4 27 Este 38 Este 0 1012.3 -0.7 70
2017-08-12 18:00:00 20.2 26 Este 34 Este 0 1012.7 -0.2 68
2017-08-12 17:00:00 20.3 26 Este 34 Este 0 1012.6 -0.6 68
2017-08-12 16:00:00 21.2 27 Este 35 Este 0 1013 -0.4 66
2017-08-12 15:00:00 20.8 27 Este 34 Este 0 1012.9 -0.5 67
2017-08-12 14:00:00 21.1 27 Este 33 Este 0 1013.2 0.1 66
2017-08-12 13:00:00 21.3 22 Este 28 Este 0 1013.4 0.4 65
2017-08-12 12:00:00 21.3 17 Este 26 Este 0 1013.4 0.6 65
2017-08-12 11:00:00 20.3 15 Este 21 Este 0 1013.1 0.6 71
2017-08-12 10:00:00 19 17 Este 24 Este 0 1013 0.8 72
2017-08-12 09:00:00 18 16 Este 35 Este 0 1012.8 0.7 75
2017-08-12 08:00:00 17.1 19 Este 32 Este 0 1012.5 0 76
2017-08-12 07:00:00 17.4 22 Este 34 Este 0 1012.2 -0.7 75
2017-08-12 06:00:00 17.4 25 Este 35 Este 0 1012.1 -1.2 73
2017-08-12 05:00:00 17.6 23 Este 34 Este 0 1012.5 -1 76
2017-08-12 04:00:00 17.6 22 Este 31 Este 0 1012.9 -0.8 76
2017-08-12 03:00:00 17.6 19 Este 30 Este 0 1013.3 -0.8 74
2017-08-12 02:00:00 17.5 22 Este 30 Este 0 1013.5 -0.6 74
2017-08-12 01:00:00 17.6 22 Este 32 Este 0 1013.7 -0.3 74
2017-08-12 00:00:00 17.7 23 Este 37 Este 0 1014.1 0.1 72
2017-08-11 23:00:00 17.7 27 Este 37 Este 0 1014.1 -0.1 72
2017-08-11 22:00:00 17.6 24 Este 31 Este 0 1014 -0.2 70
2017-08-11 21:00:00 18.1 23 Este 33 Este 0 1014 -0.6 67
2017-08-11 20:00:00 19 22 Este 31 Este 0 1014.2 -0.4 63
2017-08-11 19:00:00 19.2 22 Este 32 Este 0 1014.2 -0.7 63
2017-08-11 18:00:00 19.5 24 Este 33 Este 0 1014.6 -0.2 61
2017-08-11 17:00:00 19.8 23 Este 33 Este 0 1014.6 -0.4 62
2017-08-11 16:00:00 20.6 27 Este 36 Este 0 1014.9 -0.5 61
2017-08-11 15:00:00 19.7 23 Este 32 Este 0 1014.8 -0.4 65
2017-08-11 14:00:00 20.9 19 Este 29 Este 0 1015 0 63
2017-08-11 13:00:00 19.3 21 Este 38 Este 0 1015.4 0.6 66
2017-08-11 12:00:00 19.7 27 Este 35 Este 0 1015.2 0.4 64
2017-08-11 11:00:00 19.5 28 Este 35 Este 0 1015 0.5 65
2017-08-11 10:00:00 18.7 28 Este 35 Este 0 1014.8 0.5 66
2017-08-11 09:00:00 18.1 27 Este 33 Este 0 1014.8 0.4 67
2017-08-11 08:00:00 17.3 24 Este 33 Este 0 1014.5 -0.2 69
2017-08-11 07:00:00 17.1 24 Este 35 Este 0 1014.3 -0.8 70
2017-08-11 06:00:00 17.2 25 Este 40 Este 0 1014.4 -1.4 70
2017-08-11 05:00:00 17.3 31 Este 41 Este 0 1014.7 -1.7 70
2017-08-11 04:00:00 17.2 32 Este 41 Este 0 1015.1 -1.9 69
2017-08-11 03:00:00 17.3 28 Este 40 Este 0 1015.8 -0.9 67
2017-08-11 02:00:00 17.3 31 Este 40 Este 0 1016.4 -0.5 67
2017-08-11 01:00:00 17.3 28 Este 38 Este 0 1017 0.3 69
2017-08-11 00:00:00 17.4 31 Este 40 Este 0 1016.7 -0.3 70
2017-08-10 23:00:00 17.4 32 Este 40 Nordeste 0 1016.9 -0.1 71
2017-08-10 22:00:00 17.3 29 Este 37 Este 0 1016.7 -0.7 70
2017-08-10 21:00:00 17.6 27 Nordeste 38 Nordeste 0 1017 -0.9 67
2017-08-10 20:00:00 18.2 27 Este 36 Este 0 1017 -1.1 65
2017-08-10 19:00:00 18.4 23 Nordeste 34 Nordeste 0 1017.4 -0.8 65
2017-08-10 18:00:00 19 17 Nordeste 34 Nordeste 0 1017.9 -0.8 63
2017-08-10 17:00:00 19.1 20 Nordeste 36 Nordeste 0 1018.1 -0.6 63
2017-08-10 16:00:00 19.4 21 Nordeste 35 Este 0 1018.2 -0.2 62
2017-08-10 15:00:00 19.4 19 Nordeste 32 Nordeste 0 1018.7 0.3 61
2017-08-10 14:00:00 19.4 22 Nordeste 35 Nordeste 0 1018.7 0.6 59
2017-08-10 13:00:00 19.7 21 Nordeste 36 Nordeste 0 1018.4 0.4 55
2017-08-10 12:00:00 19.1 21 Nordeste 31 Nordeste 0 1018.4 0.6 58
2017-08-10 11:00:00 18.7 22 Nordeste 34 Nordeste 0 1018.1 0.6 59
2017-08-10 10:00:00 18.1 18 Nordeste 33 Este 0 1018 0.6 60
2017-08-10 09:00:00 17.5 14 Nordeste 33 Nordeste 0 1017.8 0.8 66
2017-08-10 08:00:00 16.7 22 Nordeste 35 Nordeste 0 1017.5 0.5 68
2017-08-10 07:00:00 16.5 15 Norte 36 Nordeste 0 1017.4 0.4 67
2017-08-10 06:00:00 16.5 22 Nordeste 37 Norte 0 1017 -0.3 66
2017-08-10 05:00:00 16.8 24 Nordeste 40 Nordeste 0 1017 -0.5 67
2017-08-10 04:00:00 16.8 23 Nordeste 36 Nordeste 0 1017 -0.3 66
2017-08-10 03:00:00 16.9 19 Nordeste 35 Norte 0 1017.3 0.3 66
2017-08-10 02:00:00 17 23 Nordeste 39 Norte 0 1017.5 0.5 66
2017-08-10 01:00:00 17 18 Nordeste 36 Nordeste 0 1017.3 0.9 66
2017-08-10 00:00:00 17.1 23 Nordeste 40 Nordeste 0 1017 0.9 65
2017-08-09 23:00:00 17.1 22 Norte 40 Nordeste 0 1017 1.3 66
2017-08-09 22:00:00 17.2 23 Nordeste 41 Nordeste 0 1016.4 0.8 66
2017-08-09 21:00:00 17.6 16 Norte 29 Nordeste 0 1016.1 0.6 64
2017-08-09 20:00:00 19.1 13 Norte 34 Nordeste 0 1015.7 0.3 60
2017-08-09 19:00:00 18.8 16 Norte 32 Nordeste 0 1015.6 0.2 59
2017-08-09 18:00:00 19.6 14 Norte 31 Norte 0 1015.5 0.4 54
2017-08-09 17:00:00 19.4 14 Norte 28 Norte 0 1015.4 0.6 55
2017-08-09 16:00:00 19.9 13 Norte 26 Norte 0 1015.4 0.8 52
2017-08-09 15:00:00 19.6 10 Norte 31 Norte 0 1015.1 0.9 54
2017-08-09 14:00:00 17.8 16 Noroeste 32 Norte 0 1014.8 1.3 62
2017-08-09 13:00:00 19.2 12 Noroeste 26 Norte 0 1014.6 1.7 54
2017-08-09 12:00:00 17.7 15 Noroeste 29 Norte 0 1014.2 2 56
2017-08-09 11:00:00 17.5 16 Norte 29 Norte 0 1013.5 1.6 59
2017-08-09 10:00:00 16.8 15 Norte 32 Norte 0 1012.9 1.4 58
2017-08-09 09:00:00 16.5 18 Norte 32 Norte 0 1012.2 1.2 56
2017-08-09 08:00:00 16 19 Norte 36 Norte 0 1011.9 1.1 65
2017-08-09 07:00:00 15.9 19 Norte 39 Norte 0 1011.5 0.6 61
2017-08-09 06:00:00 16.2 21 Norte 38 Norte 0 1011 0.2 60
2017-08-09 05:00:00 16.5 19 Noroeste 34 Noroeste 0 1010.8 -0.2 67
2017-08-09 04:00:00 16 19 Noroeste 40 Norte 0 1010.9 0.1 68
2017-08-09 03:00:00 16.2 22 Norte 39 Noroeste 0 1010.8 -0.6 74
2017-08-09 02:00:00 17 22 Noroeste 36 Noroeste 0 1011 -0.1 63
2017-08-09 01:00:00 17 25 Noroeste 41 Noroeste 0 1010.8 0.2 66
2017-08-09 00:00:00 16.9 15 Noroeste 37 Noroeste 0 1011.4 1.1 69
2017-08-08 23:00:00 17.4 19 Noroeste 36 Oeste 0 1011.1 0.7 68
2017-08-08 22:00:00 17.3 32 Oeste 42 Noroeste 0 1010.6 -0.1 68
2017-08-08 21:00:00 18.3 32 Oeste 37 Noroeste 0 1010.3 -0.3 62
2017-08-08 20:00:00 19.2 32 Oeste 38 Oeste 0 1010.4 -0.2 58
2017-08-08 19:00:00 19.4 31 Oeste 40 Oeste 0 1010.7 -0.2 63
2017-08-08 18:00:00 19.7 36 Oeste 46 Oeste 0 1010.6 -0.3 57
2017-08-08 17:00:00 21.2 28 Oeste 34 Noroeste 0 1010.6 -0.7 51
2017-08-08 16:00:00 21.9 20 Oeste 26 Noroeste 0 1010.9 -0.4 52
2017-08-08 15:00:00 21.2 22 Oeste 27 Oeste 0 1010.9 -0.2 52
2017-08-08 14:00:00 22.7 15 Oeste 21 Noroeste 0 1011.3 0.7 48
2017-08-08 13:00:00 20.7 18 Oeste 27 Noroeste 0 1011.3 0.9 55
2017-08-08 12:00:00 18.5 20 Noroeste 31 Noroeste 0 1011.1 0.8 63
2017-08-08 11:00:00 17.7 19 Noroeste 34 Noroeste 0 1010.6 0.8 65
2017-08-08 10:00:00 17 16 Noroeste 30 Noroeste 0 1010.4 0.9 72
2017-08-08 09:00:00 16.5 16 Noroeste 33 Noroeste 0 1010.3 1.1 72
2017-08-08 08:00:00 15.9 18 Noroeste 40 Noroeste 0.2 1009.8 0.8 82
2017-08-08 07:00:00 16 13 Noroeste 26 Noroeste 0 1009.5 0.5 78
2017-08-08 06:00:00 16.3 16 Noroeste 28 Norte 0.4 1009.2 -0.1 76
2017-08-08 05:00:00 15.2 17 Oeste 28 Sudoeste 0 1009 -0.4 87
2017-08-08 04:00:00 15 23 Oeste 35 Oeste 0.8 1009 -0.5 87
2017-08-08 03:00:00 15.2 22 Oeste 31 Oeste 1.8 1009.3 -0.5 84
2017-08-08 02:00:00 15.2 16 Oeste 23 Oeste 0 1009.4 -0.2 82
2017-08-08 01:00:00 15.5 15 Oeste 22 Sudoeste 0 1009.5 0.2 80
2017-08-08 00:00:00 16.7 16 Oeste 25 Noroeste 0 1009.8 0.9 75
2017-08-07 23:00:00 17.1 7 Noroeste 16 Noroeste 0 1009.6 1 68
2017-08-07 22:00:00 16.7 7 Noroeste 17 Noroeste 0 1009.3 0.8 67
2017-08-07 21:00:00 18.8 8 Noroeste 20 Noroeste 0 1008.9 0.5 58
2017-08-07 20:00:00 18.4 9 Noroeste 19 Norte 0 1008.6 0.4 61
2017-08-07 19:00:00 19.1 12 Noroeste 22 Noroeste 0 1008.5 0.4 60
2017-08-07 18:00:00 18.2 12 Norte 22 Norte 0 1008.4 0.4 64
2017-08-07 17:00:00 18.2 10 Norte 23 Norte 0 1008.2 0.1 67
2017-08-07 16:00:00 18.4 10 Norte 23 Nordeste 0 1008.1 0.4 71
2017-08-07 15:00:00 17.9 11 Norte 25 Nordeste 0 1008 0.7 71
2017-08-07 14:00:00 16.5 14 Nordeste 41 Nordeste 0.2 1008.1 1.1 81
2017-08-07 13:00:00 15.6 23 Nordeste 35 Nordeste 1.8 1007.7 0.9 89
2017-08-07 12:00:00 15.6 23 Nordeste 46 Nordeste 0.8 1007.3 1.2 85
2017-08-07 11:00:00 16.5 31 Nordeste 47 Nordeste 0 1007 1.2 84
2017-08-07 10:00:00 16.5 38 Nordeste 56 Este 0.8 1006.8 1 86
2017-08-07 09:00:00 16.9 45 Nordeste 57 Este 0.2 1006.1 0.3 81
2017-08-07 08:00:00 16.6 47 Este 62 Este 0.6 1005.8 -0.1 85
2017-08-07 07:00:00 17.1 50 Este 64 Nordeste 0 1005.8 -0.8 85
2017-08-07 06:00:00 17.6 53 Nordeste 65 Este 0 1005.8 -1.5 81
2017-08-07 05:00:00 18 51 Este 65 Este 0 1005.9 -1.9 79
2017-08-07 04:00:00 18.3 50 Este 62 Este 0 1006.6 -1.7 79
2017-08-07 03:00:00 18.5 46 Este 60 Nordeste 0 1007.3 -1.8 78
2017-08-07 02:00:00 18.3 49 Este 62 Nordeste 0 1007.8 -1.6 74
2017-08-07 01:00:00 18.4 49 Este 60 Este 0 1008.3 -0.7 70
2017-08-07 00:00:00 18.3 50 Este 61 Este 0 1009.1 0.3 71
2017-08-06 23:00:00 18.2 50 Este 67 Este 0 1009.4 -0.1 66
2017-08-06 22:00:00 18.2 53 Este 68 Este 0 1009 -0.9 64
2017-08-06 21:00:00 18.3 52 Este 68 Este 0 1008.8 -1.6 67
2017-08-06 20:00:00 18.7 52 Este 64 Este 0 1009.5 -1.2 68
2017-08-06 19:00:00 19 53 Este 68 Este 0 1009.9 -1.4 68
2017-08-06 18:00:00 19.7 45 Este 60 Este 0 1010.4 -1 65
2017-08-06 17:00:00 20 44 Este 61 Este 0 1010.7 -1 60
2017-08-06 16:00:00 20.2 46 Este 60 Este 0 1011.3 -1.2 60
2017-08-06 15:00:00 20.3 47 Este 61 Este 0 1011.4 -1.1 59
2017-08-06 14:00:00 19.9 48 Este 60 Este 0 1011.7 -1 59
2017-08-06 13:00:00 19.1 46 Este 61 Este 0 1012.5 -0.2 62
2017-08-06 12:00:00 19.5 46 Este 60 Este 0 1012.5 -0.4 62
2017-08-06 11:00:00 18.6 47 Este 61 Este 0 1012.7 0 65
2017-08-06 10:00:00 18.1 50 Este 60 Este 0 1012.7 0.3 64
2017-08-06 09:00:00 17.8 46 Este 60 Este 0 1012.9 0.5 65
2017-08-06 08:00:00 17.6 48 Este 57 Este 0 1012.7 0.1 69
2017-08-06 07:00:00 17.4 45 Este 59 Nordeste 0 1012.4 -0.6 70
2017-08-06 06:00:00 17.3 44 Este 57 Nordeste 0 1012.4 -0.7 70
2017-08-06 05:00:00 17.4 45 Nordeste 59 Este 0 1012.6 -0.9 70
2017-08-06 04:00:00 17.6 37 Nordeste 54 Nordeste 0 1013 -0.8 71
2017-08-06 03:00:00 17.6 35 Nordeste 53 Nordeste 0 1013.1 -1 72
2017-08-06 02:00:00 17.7 45 Nordeste 57 Nordeste 0 1013.5 -0.7 74
2017-08-06 01:00:00 17.6 31 Nordeste 45 Nordeste 0 1013.8 0 74
2017-08-06 00:00:00 17.6 29 Nordeste 48 Nordeste 0 1014.1 0.3 73
2017-08-05 23:00:00 17.8 30 Nordeste 47 Nordeste 0 1014.2 0.5 73
2017-08-05 22:00:00 17.7 28 Nordeste 44 Nordeste 0 1013.8 0.2 72
2017-08-05 21:00:00 17.9 25 Nordeste 41 Nordeste 0 1013.8 0.3 68
2017-08-05 20:00:00 18.6 25 Nordeste 37 Nordeste 0 1013.7 0.1 64
2017-08-05 19:00:00 18.8 24 Nordeste 37 Nordeste 0 1013.6 0 63
2017-08-05 18:00:00 19 22 Nordeste 39 Nordeste 0 1013.5 -0.2 65
2017-08-05 17:00:00 19.4 19 Nordeste 38 Nordeste 0 1013.6 -0.1 64
2017-08-05 16:00:00 18.9 22 Nordeste 36 Nordeste 0 1013.6 0.1 67
2017-08-05 15:00:00 18.9 22 Nordeste 38 Nordeste 0 1013.7 0.4 64
2017-08-05 14:00:00 18.9 24 Nordeste 40 Nordeste 0 1013.7 0.9 65
2017-08-05 13:00:00 18.6 24 Nordeste 40 Nordeste 0 1013.5 1.1 69
2017-08-05 12:00:00 18.2 24 Nordeste 41 Nordeste 0 1013.3 1.4 71
2017-08-05 11:00:00 17.5 21 Nordeste 34 Nordeste 0 1012.8 1.5 79
2017-08-05 10:00:00 17.3 27 Este 36 Este 0 1012.4 1.4 80
2017-08-05 09:00:00 17.8 15 Nordeste 28 Nordeste 0 1011.9 1.1 75
2017-08-05 08:00:00 17.6 15 Nordeste 27 Nordeste 0 1011.3 0.6 76
2017-08-05 07:00:00 17.4 12 Nordeste 24 Norte 0 1011 0.4 77
2017-08-05 06:00:00 17.3 13 Norte 23 Nordeste 0 1010.8 0.1 77
2017-08-05 05:00:00 16.5 4 Este 18 Este 0 1010.7 0.3 85
2017-08-05 04:00:00 16 11 Sudeste 19 Norte 0.2 1010.6 0.3 87
2017-08-05 03:00:00 16.5 8 Norte 18 Norte 0 1010.7 0.5 87
2017-08-05 02:00:00 16.5 10 Norte 21 Noroeste 0.2 1010.4 0.6 89
2017-08-05 01:00:00 16.4 11 Noroeste 24 Norte 0 1010.3 1.2 89
2017-08-05 00:00:00 16.5 12 Norte 28 Nordeste 0 1010.2 1.4 91
2017-08-04 23:00:00 16.5 15 Norte 30 Nordeste 0.6 1009.8 1.3 92
2017-08-04 22:00:00 17.2 12 Norte 26 Norte 0.6 1009.1 0.9 92
2017-08-04 21:00:00 17.4 12 Norte 23 Norte 0.8 1008.8 0.9 92
2017-08-04 20:00:00 17.7 9 Norte 23 Norte 0.4 1008.5 1.1 91
2017-08-04 19:00:00 17.9 13 Norte 23 Nordeste 0.6 1008.2 0.6 91
2017-08-04 18:00:00 18.2 12 Norte 26 Norte 0.2 1007.9 0.9 91
2017-08-04 17:00:00 18.6 19 Norte 25 Norte 2.2 1007.4 0.2 91
2017-08-04 16:00:00 19.6 15 Norte 49 Oeste 0.4 1007.6 0.5 88
2017-08-04 15:00:00 21.1 37 Oeste 45 Oeste 0 1007 -0.1 87
2017-08-04 14:00:00 21.1 17 Oeste 39 Oeste 0 1007.2 0.1 87
2017-08-04 13:00:00 20.9 11 Noroeste 25 Norte 0 1007.1 0.3 88
2017-08-04 12:00:00 20.6 7 Noroeste 13 Noroeste 0 1007.1 0.7 89
2017-08-04 11:00:00 19.9 9 Noroeste 18 Noroeste 0.4 1007.1 1.2 89
2017-08-04 10:00:00 20 10 Oeste 24 Noroeste 0 1006.8 0.9 88
2017-08-04 09:00:00 20.6 23 Oeste 31 Oeste 0 1006.4 0.8 84
2017-08-04 08:00:00 20.9 27 Oeste 42 Oeste 0 1005.9 0.9 81
2017-08-04 07:00:00 20.7 27 Oeste 38 Oeste 0 1005.9 0.4 81
2017-08-04 06:00:00 20.9 36 Oeste 55 Oeste 0 1005.6 0 80
2017-08-04 05:00:00 21.4 41 Oeste 56 Oeste 0 1005 -0.8 77
2017-08-04 04:00:00 21.3 34 Oeste 45 Oeste 0 1005.5 -1.4 76
2017-08-04 03:00:00 20.9 31 Oeste 40 Sudoeste 0 1005.6 -1.3 76
2017-08-04 02:00:00 21 33 Oeste 42 Sudoeste 0 1005.8 -1.4 74
2017-08-04 01:00:00 20 12 Oeste 16 Oeste 0 1006.9 -0.3 78
2017-08-04 00:00:00 19.8 9 Sur 21 Sudeste 0 1006.9 -0.4 77
2017-08-03 23:00:00 19.7 18 Sudeste 32 Sudeste 0 1007.2 -0.3 75
2017-08-03 22:00:00 19.6 23 Sudeste 31 Sudeste 0 1007.2 0.1 76
2017-08-03 21:00:00 20 19 Sudeste 26 Sudeste 0 1007.3 0.2 74
2017-08-03 20:00:00 21.1 12 Sudeste 45 Oeste 0 1007.5 0.2 70
2017-08-03 19:00:00 21.9 40 Oeste 49 Oeste 0 1007.1 -0.7 64
2017-08-03 18:00:00 21.8 45 Oeste 54 Noroeste 0 1007.1 -0.8 67
2017-08-03 17:00:00 21.1 44 Noroeste 50 Noroeste 0 1007.3 -0.9 71
2017-08-03 16:00:00 22 37 Oeste 42 Oeste 0 1007.8 -0.9 68
2017-08-03 15:00:00 21.2 31 Noroeste 39 Noroeste 0 1007.9 -1.4 68
2017-08-03 14:00:00 22.1 31 Noroeste 37 Oeste 0 1008.2 -1.1 65
2017-08-03 13:00:00 22.9 27 Oeste 34 Noroeste 0 1008.7 -0.3 55
2017-08-03 12:00:00 23 21 Oeste 27 Oeste 0 1009.3 1 61
2017-08-03 11:00:00 22.7 20 Oeste 29 Oeste 0 1009.3 1.4 63
2017-08-03 10:00:00 21.4 24 Oeste 29 Oeste 0 1009 1.6 68
2017-08-03 09:00:00 19.9 22 Oeste 42 Oeste 0 1008.3 1.5 72
2017-08-03 08:00:00 18.3 25 Oeste 39 Oeste 0 1007.9 1.3 80
2017-08-03 07:00:00 18.5 35 Oeste 48 Oeste 0 1007.4 0.8 87
2017-08-03 06:00:00 19.3 40 Oeste 45 Oeste 0 1006.8 0.5 85
2017-08-03 05:00:00 19.2 33 Oeste 49 Oeste 0 1006.6 0.4 85
2017-08-03 04:00:00 20 39 Oeste 49 Oeste 0 1006.6 -0.1 79
2017-08-03 03:00:00 20.6 42 Oeste 53 Oeste 0 1006.3 -0.9 74
2017-08-03 02:00:00 20.8 46 Oeste 55 Oeste 0 1006.2 -1.2 71
2017-08-03 01:00:00 21 40 Oeste 53 Oeste 0 1006.7 0 70
2017-08-03 00:00:00 21.4 41 Oeste 59 Oeste 0 1007.2 1.1 68
2017-08-02 23:00:00 21.7 39 Oeste 49 Oeste 0 1007.4 1.8 67
2017-08-02 22:00:00 21.9 42 Oeste 52 Oeste 0 1006.7 1.1 67
2017-08-02 21:00:00 23.1 39 Oeste 45 Oeste 0 1006.1 0.8 64
2017-08-02 20:00:00 21.8 37 Oeste 56 Oeste 0 1005.6 -0.1 70
2017-08-02 19:00:00 22.8 47 Oeste 60 Oeste 0 1005.6 -0.4 66
2017-08-02 18:00:00 22.9 54 Oeste 61 Oeste 0 1005.3 -1.5 66
2017-08-02 17:00:00 24.8 26 Oeste 61 Oeste 0 1005.7 -1.3 62
2017-08-02 16:00:00 23.5 47 Oeste 59 Oeste 0 1006 -1.3 62
2017-08-02 15:00:00 25.2 36 Oeste 45 Oeste 0 1006.8 -1.1 56
2017-08-02 14:00:00 26.5 29 Oeste 45 Oeste 0 1007 -0.9 53
2017-08-02 13:00:00 24.8 41 Oeste 48 Oeste 0 1007.3 -0.6 56
2017-08-02 12:00:00 24.8 23 Oeste 41 Sudoeste 0 1007.9 0.1 51
2017-08-02 11:00:00 22.1 28 Oeste 41 Oeste 0 1007.9 0.4 56
2017-08-02 10:00:00 20 32 Oeste 37 Oeste 0 1007.9 0.1 58
2017-08-02 09:00:00 18.5 24 Oeste 39 Oeste 0 1007.8 0.1 61
2017-08-02 08:00:00 16.9 22 Sudoeste 30 Oeste 0 1007.5 -0.2 61
2017-08-02 07:00:00 16.3 21 Oeste 32 Sudoeste 0 1007.8 0 67
2017-08-02 06:00:00 15.9 21 Oeste 26 Oeste 0 1007.7 -0.6 70
2017-08-02 05:00:00 16 22 Oeste 27 Oeste 0 1007.7 -1.2 73
2017-08-02 04:00:00 16.3 21 Oeste 29 Sudoeste 0 1007.8 -1.3 75
2017-08-02 03:00:00 16.3 17 Oeste 25 Oeste 0 1008.3 -0.8 72
2017-08-02 02:00:00 16.4 17 Oeste 22 Oeste 0 1008.9 -0.3 72
2017-08-02 01:00:00 17.2 12 Oeste 15 Oeste 0 1009.1 0.3 78
2017-08-02 00:00:00 17.6 12 Oeste 15 Sudoeste 0 1009.1 0.7 77
2017-08-01 23:00:00 17.9 10 Sudeste 15 Sudeste 0 1009.2 1.2 76
2017-08-01 22:00:00 18.4 11 Sudeste 13 Sudeste 0 1008.8 1.2 72
2017-08-01 21:00:00 20.3 6 Sudeste 14 Este 0 1008.4 0.6 66
2017-08-01 20:00:00 20.9 10 Este 18 Este 0 1008 0.4 64
2017-08-01 19:00:00 21.1 10 Este 18 Este 0 1007.6 -0.1 64
2017-08-01 18:00:00 20.5 11 Nordeste 17 Nordeste 0 1007.8 0.2 64
2017-08-01 17:00:00 20.5 12 Nordeste 20 Este 0 1007.6 0.1 65
2017-08-01 16:00:00 21.5 12 Nordeste 20 Este 0 1007.7 0.2 61
2017-08-01 15:00:00 22.2 14 Este 21 Este 0 1007.6 0 56
2017-08-01 14:00:00 22.2 14 Este 19 Este 0 1007.5 0.3 57
2017-08-01 13:00:00 21.1 9 Nordeste 14 Nordeste 0 1007.5 0.7 61
2017-08-01 12:00:00 20.3 8 Nordeste 12 Nordeste 0 1007.6 1.2 65
2017-08-01 11:00:00 19.4 6 Nordeste 9 Nordeste 0 1007.2 1.5 68
2017-08-01 10:00:00 18.5 3 Norte 8 Nordeste 0 1006.8 1.4 71
2017-08-01 09:00:00 17 3 Oeste 10 Oeste 0 1006.4 1.2 81
2017-08-01 08:00:00 16.1 6 Oeste 8 Oeste 0 1005.7 0.8 82
2017-08-01 07:00:00 16 5 Oeste 10 Oeste 0 1005.4 0.3 81
2017-08-01 06:00:00 16.1 3 Oeste 10 Oeste 0 1005.2 0 79
2017-08-01 05:00:00 16.4 5 Oeste 9 Este 0 1004.9 -0.4 78
2017-08-01 04:00:00 17 4 Noroeste 15 Nordeste 0 1005.1 -0.3 77
2017-08-01 03:00:00 17.5 9 Nordeste 17 Nordeste 0 1005.2 0 72
2017-08-01 02:00:00 17.4 9 Nordeste 17 Nordeste 0 1005.3 0.2 72
2017-08-01 01:00:00 17.7 11 Nordeste 18 Nordeste 0 1005.4 1 71
2017-08-01 00:00:00 17.8 10 Nordeste 19 Este 0 1005.2 0.8 69
2017-07-31 23:00:00 17.9 15 Este 20 Este 0 1005.1 0.8 70
2017-07-31 22:00:00 18 16 Este 22 Este 0 1004.4 0.3 69
2017-07-31 21:00:00 18.4 13 Nordeste 19 Nordeste 0 1004.4 0.5 68
2017-07-31 20:00:00 18.9 10 Nordeste 17 Nordeste 0 1004.3 0.4 64
2017-07-31 19:00:00 19.5 9 Nordeste 16 Nordeste 0 1004.1 0.1 64
2017-07-31 18:00:00 19.4 8 Nordeste 15 Nordeste 0 1003.9 0 64
2017-07-31 17:00:00 20.6 8 Nordeste 16 Norte 0 1003.9 -0.2 63
2017-07-31 16:00:00 21.6 8 Norte 14 Norte 0 1004 0 61
2017-07-31 15:00:00 21.2 9 Nordeste 15 Este 0 1003.9 -0.1 63
2017-07-31 14:00:00 20.1 9 Nordeste 13 Nordeste 0 1004.1 0.1 67
2017-07-31 13:00:00 20 6 Nordeste 9 Este 0 1004 0.1 70
2017-07-31 12:00:00 19.6 3 Nordeste 8 Norte 0 1004 0 69
2017-07-31 11:00:00 19 4 Sudeste 11 Este 0 1004 0.3 76
2017-07-31 10:00:00 16.7 9 Sudeste 11 Sudoeste 0 1003.9 0.6 85
2017-07-31 09:00:00 16.4 5 Sudeste 9 Sudeste 0 1004 0.9 85
2017-07-31 08:00:00 16.6 2 Noroeste 11 Sur 0 1003.7 0 82
2017-07-31 07:00:00 16.3 8 Sur 13 Sur 0 1003.3 -0.4 82
2017-07-31 06:00:00 16.7 3 Oeste 19 Oeste 0 1003.1 -0.9 83
2017-07-31 05:00:00 16.6 20 Oeste 22 Oeste 0 1003.7 -1.1 83
2017-07-31 04:00:00 17.1 5 Oeste 12 Oeste 0 1003.7 -1.4 78
2017-07-31 03:00:00 17.1 9 Oeste 14 Sudoeste 0 1004 -1.4 78
2017-07-31 02:00:00 17.3 13 Oeste 17 Oeste 0 1004.8 -0.5 77
2017-07-31 01:00:00 17.6 7 Oeste 16 Oeste 0 1005.1 0.3 76
2017-07-31 00:00:00 17.6 14 Oeste 27 Oeste 0 1005.4 1.1 76
2017-07-30 23:00:00 18.1 24 Oeste 32 Oeste 0 1005.3 0.8 77
2017-07-30 22:00:00 18.2 27 Oeste 41 Oeste 0 1004.8 0.4 74
2017-07-30 21:00:00 18.4 37 Oeste 41 Oeste 0 1004.3 -0.2 71
2017-07-30 20:00:00 19 36 Oeste 42 Oeste 0 1004.5 -0.4 68
2017-07-30 19:00:00 19.7 32 Oeste 42 Oeste 0 1004.4 -0.5 63
2017-07-30 18:00:00 20.7 36 Oeste 48 Oeste 0 1004.5 0.4 61
2017-07-30 17:00:00 21 44 Oeste 50 Oeste 0 1004.9 0.8 64
2017-07-30 16:00:00 20.9 40 Oeste 55 Oeste 0 1004.9 0.5 64
2017-07-30 15:00:00 19.5 52 Oeste 59 Oeste 0 1004.1 -0.3 67
2017-07-30 14:00:00 20.2 45 Oeste 63 Noroeste 0 1004.1 -0.1 63
2017-07-30 13:00:00 20.7 41 Oeste 48 Oeste 0 1004.4 0.1 64
2017-07-30 12:00:00 20.5 27 Oeste 40 Oeste 0 1004.4 0.5 64
2017-07-30 11:00:00 20.8 34 Oeste 45 Sudoeste 0 1004.2 -0.1 65
2017-07-30 10:00:00 19.6 36 Oeste 45 Oeste 0 1004.3 0.3 70
2017-07-30 09:00:00 18 37 Oeste 45 Sudoeste 0 1003.9 -0.1 78
2017-07-30 08:00:00 17.4 28 Oeste 41 Sudoeste 0 1004.3 -0.2 83
2017-07-30 07:00:00 16.8 29 Sudoeste 34 Sudoeste 0 1004 -0.8 83
2017-07-30 06:00:00 17.1 31 Oeste 36 Oeste 0 1004 -1.1 83
2017-07-30 05:00:00 17.4 33 Oeste 37 Sudoeste 0 1004.5 -0.6 83
2017-07-30 04:00:00 17.4 24 Oeste 36 Sudoeste 0 1004.8 -0.1 85
2017-07-30 03:00:00 17.7 27 Oeste 37 Oeste 0 1005.1 0.2 85
2017-07-30 02:00:00 17.8 33 Oeste 49 Oeste 0 1005.1 0.8 86
2017-07-30 01:00:00 18.4 38 Oeste 53 Oeste 0.8 1004.9 1.6 88
2017-07-30 00:00:00 19.1 35 Oeste 58 Oeste 0 1004.9 1.9 84
2017-07-29 23:00:00 19.7 46 Oeste 67 Oeste 0 1004.3 1.6 81
2017-07-29 22:00:00 19.9 59 Oeste 73 Oeste 0 1003.3 0.9 78
2017-07-29 21:00:00 20.9 50 Oeste 60 Oeste 0 1003 1 74
2017-07-29 20:00:00 21.1 47 Oeste 71 Oeste 0 1002.7 0.6 73
2017-07-29 19:00:00 21.7 55 Oeste 64 Oeste 0 1002.4 0.3 71
2017-07-29 18:00:00 23.3 49 Oeste 66 Oeste 0 1002 -0.7 64
2017-07-29 17:00:00 25.7 55 Oeste 74 Oeste 0 1002.1 -1 53
2017-07-29 16:00:00 26.3 58 Oeste 72 Oeste 0 1002.1 -1.6 49
2017-07-29 15:00:00 26.2 44 Oeste 52 Oeste 0 1002.7 -1.6 58
2017-07-29 14:00:00 26.2 45 Oeste 54 Oeste 0 1003.1 -1.4 57
2017-07-29 13:00:00 25.4 42 Oeste 58 Oeste 0 1003.7 -1.1 61
2017-07-29 12:00:00 24.2 41 Oeste 53 Oeste 0 1004.3 -0.1 68
2017-07-29 11:00:00 21.9 32 Oeste 41 Oeste 0 1004.5 0 75
2017-07-29 10:00:00 20.7 34 Oeste 50 Oeste 0 1004.8 0.1 75
2017-07-29 09:00:00 20.6 38 Oeste 44 Oeste 0 1004.4 -0.3 70
2017-07-29 08:00:00 19.1 22 Sudoeste 32 Oeste 0 1004.5 -0.2 84
2017-07-29 07:00:00 18.9 16 Oeste 28 Oeste 0 1004.7 -0.2 86
2017-07-29 06:00:00 19.3 23 Oeste 30 Oeste 0 1004.7 -0.6 87
2017-07-29 05:00:00 19.4 23 Oeste 45 Oeste 0 1004.7 -1 85
2017-07-29 04:00:00 19.8 29 Oeste 37 Oeste 0 1004.9 -1.1 85
2017-07-29 03:00:00 20.1 16 Oeste 26 Oeste 0 1005.3 -1.5 84
2017-07-29 02:00:00 20.5 14 Oeste 19 Oeste 0 1005.7 -1.4 82
2017-07-29 01:00:00 20.6 8 Oeste 12 Sudoeste 0 1006 -1 81
2017-07-29 00:00:00 20 8 Este 14 Este 0 1006.8 -0.1 78
2017-07-28 23:00:00 20.1 11 Este 14 Este 0 1007.1 0.3 78
2017-07-28 22:00:00 20.4 4 Este 13 Oeste 0 1007 0 78
2017-07-28 21:00:00 21.6 10 Noroeste 22 Oeste 0 1006.9 0 75
2017-07-28 20:00:00 23.3 18 Oeste 31 Sur 0 1006.8 0 68
2017-07-28 19:00:00 22 27 Oeste 46 Oeste 0 1007 -0.3 69
2017-07-28 18:00:00 25.1 20 Oeste 39 Oeste 0 1006.9 -0.3 56
2017-07-28 17:00:00 23.9 30 Oeste 37 Oeste 0 1006.8 -0.4 61
2017-07-28 16:00:00 22.8 15 Sudoeste 35 Noroeste 0 1007.3 0.1 58
2017-07-28 15:00:00 23.1 17 Oeste 32 Oeste 0 1007.2 0 59
2017-07-28 14:00:00 23.1 21 Oeste 31 Oeste 0 1007.2 -0.1 61
2017-07-28 13:00:00 21.8 25 Oeste 30 Oeste 0 1007.2 -0.2 66
2017-07-28 12:00:00 21.1 26 Oeste 28 Oeste 0 1007.2 -0.2 68
2017-07-28 11:00:00 20.8 26 Oeste 32 Oeste 0 1007.3 0.1 70
2017-07-28 10:00:00 19.2 25 Oeste 30 Oeste 0 1007.4 0.3 76
2017-07-28 09:00:00 18.2 17 Oeste 21 Oeste 0 1007.4 0.5 81
2017-07-28 08:00:00 17 18 Oeste 21 Oeste 0 1007.2 0.2 83
2017-07-28 07:00:00 16.2 14 Oeste 18 Oeste 0 1007.1 0.1 83
2017-07-28 06:00:00 16.7 11 Oeste 16 Oeste 0 1006.9 -0.2 85
2017-07-28 05:00:00 17.2 12 Oeste 13 Oeste 0 1007 -0.4 85
2017-07-28 04:00:00 17.1 7 Oeste 9 Oeste 0 1007 -0.4 84
2017-07-28 03:00:00 17.4 4 Oeste 7 Oeste 0 1007.1 -0.4 83
2017-07-28 02:00:00 17.4 5 Oeste 9 Sudoeste 0 1007.4 -0.3 83
2017-07-28 01:00:00 17.5 6 Sudoeste 10 Sudoeste 0 1007.4 0 84
2017-07-28 00:00:00 17.6 6 Oeste 13 Oeste 0 1007.5 0.6 85
2017-07-27 23:00:00 17.5 11 Oeste 14 Noroeste 0 1007.7 1.4 85
2017-07-27 22:00:00 17.5 14 Oeste 24 Oeste 0 1007.4 1.4 86
2017-07-27 21:00:00 17.8 23 Oeste 28 Noroeste 0 1006.9 0.6 87
2017-07-27 20:00:00 18.1 22 Oeste 31 Noroeste 0 1006.3 -0.2 88
2017-07-27 19:00:00 18.2 21 Noroeste 25 Noroeste 0 1006 -0.5 88
2017-07-27 18:00:00 18.4 13 Oeste 18 Oeste 0.2 1006.3 0 89
2017-07-27 17:00:00 18 14 Oeste 18 Oeste 0 1006.5 0.3 89
2017-07-27 16:00:00 17.7 17 Noroeste 19 Noroeste 0 1006.5 0.4 89
2017-07-27 15:00:00 18.4 6 Noroeste 19 Noroeste 0.2 1006.3 0.6 89
2017-07-27 14:00:00 18.6 11 Noroeste 18 Noroeste 0.8 1006.2 0.7 90
2017-07-27 13:00:00 18.7 8 Noroeste 39 Noroeste 0.4 1006.1 0.8 89
2017-07-27 12:00:00 19.5 22 Oeste 31 Oeste 0.6 1005.7 0.8 89
2017-07-27 11:00:00 19.4 26 Oeste 35 Oeste 0.4 1005.5 1 88
2017-07-27 10:00:00 19.3 31 Oeste 41 Oeste 0 1005.3 1 85
2017-07-27 09:00:00 19.3 33 Oeste 46 Oeste 0 1004.9 0.7 84
2017-07-27 08:00:00 19.3 39 Oeste 50 Oeste 0 1004.5 0 82
2017-07-27 07:00:00 19.1 42 Oeste 50 Oeste 0 1004.3 -0.5 82
2017-07-27 06:00:00 19.1 39 Oeste 49 Oeste 0 1004.2 -0.8 81
2017-07-27 05:00:00 18.7 35 Oeste 42 Oeste 0 1004.5 -1.2 81
2017-07-27 04:00:00 18.5 34 Oeste 41 Oeste 0 1004.8 -1.1 80
2017-07-27 03:00:00 18.4 32 Oeste 42 Oeste 0 1005 -1.5 80
2017-07-27 02:00:00 17.8 31 Oeste 47 Oeste 0 1005.7 -0.4 81
2017-07-27 01:00:00 17.9 35 Oeste 40 Oeste 0 1005.9 0.2 81
2017-07-27 00:00:00 18.1 31 Oeste 35 Oeste 0 1006.5 1.1 80
2017-07-26 23:00:00 18.6 33 Oeste 45 Oeste 0 1006.1 0.8 79
2017-07-26 22:00:00 18.9 39 Oeste 49 Oeste 0 1005.7 0.2 77
2017-07-26 21:00:00 20 43 Oeste 53 Oeste 0 1005.4 -0.3 71
2017-07-26 20:00:00 20.7 49 Oeste 58 Oeste 0 1005.3 -0.9 67
2017-07-26 19:00:00 20.3 53 Oeste 60 Oeste 0 1005.5 -1.5 67
2017-07-26 18:00:00 20.3 51 Oeste 58 Oeste 0 1005.7 -1.4 65
2017-07-26 17:00:00 20.5 46 Oeste 52 Oeste 0 1006.2 -1.2 64
2017-07-26 16:00:00 21.3 37 Oeste 47 Oeste 0 1007 -0.8 63
2017-07-26 15:00:00 21.5 35 Oeste 41 Oeste 0 1007.1 -0.9 61
2017-07-26 14:00:00 21 33 Oeste 37 Oeste 0 1007.4 -0.4 62
2017-07-26 13:00:00 21.6 29 Oeste 33 Oeste 0 1007.8 -0.4 59
2017-07-26 12:00:00 21.7 25 Oeste 29 Oeste 0 1008 0.4 61
2017-07-26 11:00:00 19.8 26 Oeste 32 Oeste 0 1007.8 0.3 70
2017-07-26 10:00:00 18.1 23 Oeste 26 Oeste 0 1008.2 0.8 75
2017-07-26 09:00:00 17.4 20 Oeste 26 Sudoeste 0 1007.6 0.1 77
2017-07-26 08:00:00 17 19 Oeste 22 Oeste 0 1007.5 -0.2 79
2017-07-26 07:00:00 16.9 17 Oeste 22 Oeste 0 1007.4 -0.6 79
2017-07-26 06:00:00 17 14 Oeste 22 Oeste 0 1007.5 -1.3 79
2017-07-26 05:00:00 17.1 15 Oeste 20 Oeste 0 1007.7 -1.5 78
2017-07-26 04:00:00 17.3 10 Sudoeste 17 Sudoeste 0 1008 -1.6 76
2017-07-26 03:00:00 17.4 12 Sudoeste 14 Sudoeste 0 1008.8 -1.3 80
2017-07-26 02:00:00 17.6 8 Oeste 9 Sudoeste 0 1009.2 -1.1 82
2017-07-26 01:00:00 17.6 3 Noroeste 9 Noroeste 0 1009.6 -0.6 81
2017-07-26 00:00:00 17.4 0 Calma 6 Este 0 1010.1 -0.3 76
2017-07-25 23:00:00 17.7 2 Este 8 Este 0 1010.3 -0.2 75
2017-07-25 22:00:00 18.1 4 Sudeste 13 Este 0 1010.2 -0.5 74
2017-07-25 21:00:00 18.5 7 Nordeste 13 Norte 0 1010.4 -0.6 71
2017-07-25 20:00:00 19.7 7 Norte 14 Norte 0 1010.5 -0.9 66
2017-07-25 19:00:00 22.4 4 Oeste 13 Norte 0 1010.7 -1 55
2017-07-25 18:00:00 21.5 6 Norte 14 Norte 0 1011 -1.1 54
2017-07-25 17:00:00 23.3 8 Oeste 16 Oeste 0 1011.4 -1.3 48
2017-07-25 16:00:00 22.6 9 Oeste 15 Oeste 0 1011.7 -0.9 49
2017-07-25 15:00:00 23 7 Oeste 12 Oeste 0 1012.1 -0.7 49
2017-07-25 14:00:00 21.8 6 Norte 16 Norte 0 1012.7 -0.3 55
2017-07-25 13:00:00 20.8 6 Norte 14 Norte 0 1012.6 -0.4 59
2017-07-25 12:00:00 20.1 9 Norte 15 Nordeste 0 1012.8 -0.5 61
2017-07-25 11:00:00 18.4 9 Norte 16 Norte 0 1013 -0.2 66
2017-07-25 10:00:00 18.4 9 Nordeste 18 Nordeste 0 1013 0.2 65
2017-07-25 09:00:00 17.6 11 Norte 22 Nordeste 0 1013.3 0.1 69
2017-07-25 08:00:00 17.2 13 Norte 21 Nordeste 0 1013.2 -0.3 69
2017-07-25 07:00:00 16.9 13 Nordeste 22 Nordeste 0 1012.8 -1 72
2017-07-25 06:00:00 17 13 Norte 30 Norte 0 1013.2 -1.1 75
2017-07-25 05:00:00 17.2 9 Norte 21 Nordeste 0 1013.5 -1 74
2017-07-25 04:00:00 17.3 12 Nordeste 21 Nordeste 0 1013.8 -1 69
2017-07-25 03:00:00 17.2 9 Norte 19 Nordeste 0 1014.3 -0.9 71
2017-07-25 02:00:00 17.2 15 Norte 28 Norte 0 1014.5 -1.1 70
2017-07-25 01:00:00 17.3 11 Norte 26 Nordeste 0 1014.8 -0.4 74
2017-07-25 00:00:00 17.3 14 Nordeste 23 Norte 0 1015.2 0.2 80
2017-07-24 23:00:00 17.4 12 Norte 21 Nordeste 0 1015.6 0.4 82
2017-07-24 22:00:00 17.5 10 Norte 18 Norte 0 1015.2 0.1 80
2017-07-24 21:00:00 17.8 5 Norte 19 Norte 0 1015 -0.1 79
2017-07-24 20:00:00 17.8 11 Norte 21 Oeste 0 1015.2 -0.2 80
2017-07-24 19:00:00 19 18 Oeste 21 Oeste 0 1015.1 -0.5 75
2017-07-24 18:00:00 19.5 16 Oeste 21 Noroeste 0 1015.1 -0.4 73
2017-07-24 17:00:00 19.5 9 Noroeste 22 Noroeste 0 1015.4 0.1 68
2017-07-24 16:00:00 19.3 8 Noroeste 27 Noroeste 0 1015.6 0.4 72
2017-07-24 15:00:00 18 14 Noroeste 29 Noroeste 0 1015.5 0.6 80
2017-07-24 14:00:00 18.3 6 Oeste 12 Oeste 0.2 1015.3 0.6 85
2017-07-24 13:00:00 17.6 6 Oeste 24 Oeste 1.8 1015.2 0.8 86
2017-07-24 12:00:00 18.4 19 Oeste 23 Oeste 0 1014.9 0.8 83
2017-07-24 11:00:00 17.2 17 Noroeste 26 Oeste 0.4 1014.7 1.1 85
2017-07-24 10:00:00 17.5 12 Noroeste 29 Noroeste 0 1014.4 1.3 84
2017-07-24 09:00:00 16.9 19 Noroeste 36 Noroeste 0 1014.1 1.2 88
2017-07-24 08:00:00 16.9 21 Oeste 34 Oeste 0 1013.6 0.9 88
2017-07-24 07:00:00 16.9 19 Noroeste 32 Noroeste 0 1013.1 0.6 85
2017-07-24 06:00:00 16.9 12 Noroeste 29 Noroeste 0 1012.9 0.3 89
2017-07-24 05:00:00 16.9 12 Noroeste 41 Noroeste 0.2 1012.7 0.1 90
2017-07-24 04:00:00 17 35 Oeste 45 Noroeste 0.2 1012.5 0 89
2017-07-24 03:00:00 17.8 23 Oeste 35 Oeste 0 1012.6 0.2 90
2017-07-24 02:00:00 17.7 27 Oeste 41 Oeste 0 1012.6 0.5 90
2017-07-24 01:00:00 17.9 35 Oeste 40 Oeste 0.4 1012.5 1.1 89
2017-07-24 00:00:00 17.8 31 Oeste 44 Oeste 0 1012.4 1.4 89
2017-07-23 23:00:00 17.9 37 Oeste 45 Oeste 0 1012.1 1 89
2017-07-23 22:00:00 18 38 Oeste 48 Oeste 0 1011.4 0.5 90
2017-07-23 21:00:00 18.4 40 Oeste 49 Oeste 0 1011 -0.1 89
2017-07-23 20:00:00 18.5 36 Oeste 48 Oeste 0 1011.1 0.1 88
2017-07-23 19:00:00 19 35 Oeste 45 Oeste 0 1010.9 -0.5 85
2017-07-23 18:00:00 19.5 36 Oeste 42 Oeste 0 1011.1 -0.3 82
2017-07-23 17:00:00 20 34 Oeste 40 Oeste 0 1011 -0.2 80
2017-07-23 16:00:00 21.2 29 Oeste 44 Oeste 0 1011.4 0.2 74
2017-07-23 15:00:00 20.2 36 Oeste 45 Oeste 0 1011.4 0.3 74
2017-07-23 14:00:00 21.7 39 Oeste 44 Oeste 0 1011.2 0.1 68
2017-07-23 13:00:00 22.6 34 Oeste 39 Oeste 0 1011.2 0 64
2017-07-23 12:00:00 21 33 Oeste 40 Oeste 0 1011.1 -0.1 69
2017-07-23 11:00:00 20.6 32 Oeste 39 Oeste 0 1011.1 0.3 69
2017-07-23 10:00:00 18.9 31 Oeste 35 Oeste 0 1011.2 0.8 71
2017-07-23 09:00:00 17.9 28 Oeste 33 Oeste 0 1011.2 0.7 74
2017-07-23 08:00:00 17.1 28 Oeste 35 Oeste 0 1010.8 0.5 74
2017-07-23 07:00:00 16.8 33 Oeste 36 Oeste 0 1010.4 -0.1 72
2017-07-23 06:00:00 16.8 24 Oeste 28 Oeste 0 1010.5 -0.3 72
2017-07-23 05:00:00 17 18 Sudoeste 31 Oeste 0 1010.3 -0.7 71
2017-07-23 04:00:00 16.8 27 Oeste 31 Sudoeste 0 1010.5 -0.3 73
2017-07-23 03:00:00 16.2 24 Oeste 29 Oeste 0 1010.8 -0.1 76
2017-07-23 02:00:00 16.2 23 Oeste 27 Oeste 0 1011 0.3 75
2017-07-23 01:00:00 16.6 23 Oeste 32 Oeste 0 1010.8 1 75
2017-07-23 00:00:00 16.8 26 Oeste 37 Oeste 0 1010.9 1.8 76
2017-07-22 23:00:00 17.1 30 Oeste 39 Oeste 0 1010.7 1.9 75
2017-07-22 22:00:00 17.2 32 Oeste 41 Oeste 0 1009.8 1.5 74
2017-07-22 21:00:00 18.2 36 Oeste 44 Oeste 0 1009.1 1.3 70
2017-07-22 20:00:00 19.5 40 Oeste 46 Oeste 0 1008.8 1.2 63
2017-07-22 19:00:00 20 40 Oeste 54 Oeste 0 1008.3 1.2 62
2017-07-22 18:00:00 19.9 52 Oeste 60 Oeste 0 1007.8 0.6 64
2017-07-22 17:00:00 20.2 50 Oeste 59 Oeste 0 1007.6 0.7 62
2017-07-22 16:00:00 20.1 46 Oeste 53 Oeste 0 1007.1 0.8 60
2017-07-22 15:00:00 20.9 42 Oeste 51 Oeste 0 1007.2 1 60
2017-07-22 14:00:00 20.5 37 Oeste 46 Oeste 0 1006.9 0.9 59
2017-07-22 13:00:00 19.5 41 Oeste 47 Oeste 0 1006.3 1 69
2017-07-22 12:00:00 18.9 26 Oeste 31 Oeste 0 1006.2 1.3 74
2017-07-22 11:00:00 16.9 23 Oeste 33 Sudoeste 0 1006 1.9 81
2017-07-22 10:00:00 16 30 Oeste 35 Oeste 0 1005.3 1.3 85
2017-07-22 09:00:00 16.1 16 Oeste 34 Oeste 0 1004.9 1.2 86
2017-07-22 08:00:00 16 25 Sudoeste 28 Sudoeste 0 1004.1 0.7 87
2017-07-22 07:00:00 15.9 23 Oeste 34 Oeste 0 1004 0.7 89
2017-07-22 06:00:00 16.1 31 Oeste 45 Oeste 0.4 1003.7 0.3 89
2017-07-22 05:00:00 16.4 31 Oeste 42 Oeste 1.6 1003.4 0.2 88
2017-07-22 04:00:00 16.8 32 Oeste 37 Oeste 0 1003.3 0.3 88
2017-07-22 03:00:00 17 32 Oeste 48 Oeste 0 1003.4 0 86
2017-07-22 02:00:00 17.3 40 Oeste 54 Sudoeste 0 1003.2 -0.2 82
2017-07-22 01:00:00 17.4 40 Oeste 50 Oeste 0 1003 0 81
2017-07-22 00:00:00 17.4 41 Oeste 52 Oeste 0 1003.4 0.8 81